createdAt,value
2023-01-28T00:04:45.678Z,92807.00
2023-01-28T00:05:45.922Z,92807.00
2023-01-28T00:06:46.136Z,92809.00
2023-01-28T00:07:46.362Z,92807.00
2023-01-28T00:08:46.591Z,92805.00
2023-01-28T00:09:46.825Z,92803.00
2023-01-28T00:10:47.011Z,92805.00
2023-01-28T00:11:47.269Z,92807.00
2023-01-28T00:12:47.474Z,92809.00
2023-01-28T00:13:47.722Z,92807.00
2023-01-28T00:14:47.955Z,92807.00
2023-01-28T00:15:48.272Z,92809.00
2023-01-28T00:16:48.504Z,92809.00
2023-01-28T00:17:48.721Z,92811.00
2023-01-28T00:18:48.964Z,92813.00
2023-01-28T00:19:49.257Z,92815.00
2023-01-28T00:20:49.460Z,92815.00
2023-01-28T00:21:49.737Z,92815.00
2023-01-28T00:22:52.091Z,92813.00
2023-01-28T00:23:50.072Z,92817.00
2023-01-28T00:24:50.108Z,92821.00
2023-01-28T00:25:50.139Z,92821.00
2023-01-28T00:26:50.143Z,92823.00
2023-01-28T00:27:50.165Z,92821.00
2023-01-28T00:28:50.202Z,92823.00
2023-01-28T00:29:50.230Z,92819.00
2023-01-28T00:30:50.294Z,92827.00
2023-01-28T00:31:50.302Z,92825.00
2023-01-28T00:32:50.315Z,92825.00
2023-01-28T00:33:50.344Z,92829.00
2023-01-28T00:34:50.360Z,92829.00
2023-01-28T00:35:50.390Z,92831.00
2023-01-28T00:36:50.431Z,92833.00
2023-01-28T00:37:50.464Z,92833.00
2023-01-28T00:38:50.498Z,92833.00
2023-01-28T00:39:50.552Z,92833.00
2023-01-28T00:40:50.559Z,92831.00
2023-01-28T00:41:50.607Z,92829.00
2023-01-28T00:42:50.627Z,92825.00
2023-01-28T00:43:50.657Z,92825.00
2023-01-28T00:44:50.686Z,92827.00
2023-01-28T00:45:50.783Z,92829.00
2023-01-28T00:46:50.770Z,92831.00
2023-01-28T00:47:50.804Z,92829.00
2023-01-28T00:48:50.872Z,92829.00
2023-01-28T00:49:50.896Z,92827.00
2023-01-28T00:50:50.929Z,92825.00
2023-01-28T00:51:50.939Z,92823.00
2023-01-28T00:52:51.053Z,92823.00
2023-01-28T00:53:51.015Z,92823.00
2023-01-28T00:54:51.058Z,92829.00
2023-01-28T00:55:51.092Z,92825.00
2023-01-28T00:56:51.113Z,92829.00
2023-01-28T00:57:51.177Z,92829.00
2023-01-28T00:58:51.151Z,92827.00
2023-01-28T00:59:51.177Z,92833.00
2023-01-28T01:00:51.207Z,92829.00
2023-01-28T01:01:51.317Z,92827.00
2023-01-28T01:02:51.363Z,92829.00
2023-01-28T01:03:51.343Z,92829.00
2023-01-28T01:04:51.390Z,92829.00
2023-01-28T01:05:51.414Z,92829.00
2023-01-28T01:06:51.442Z,92840.00
2023-01-28T01:07:51.471Z,92844.00
2023-01-28T01:08:51.487Z,92844.00
2023-01-28T01:09:51.517Z,92844.00
2023-01-28T01:10:51.558Z,92848.00
2023-01-28T01:11:51.585Z,92848.00
2023-01-28T01:12:51.628Z,92848.00
2023-01-28T01:13:51.646Z,92850.00
2023-01-28T01:14:51.675Z,92846.00
2023-01-28T01:15:51.748Z,92844.00
2023-01-28T01:16:51.744Z,92848.00
2023-01-28T01:17:51.778Z,92846.00
2023-01-28T01:18:51.786Z,92846.00
2023-01-28T01:19:51.814Z,92846.00
2023-01-28T01:20:53.069Z,92848.00
2023-01-28T01:21:51.869Z,92846.00
2023-01-28T01:51:55.752Z,92831.00
2023-01-28T01:52:55.979Z,92840.00
2023-01-28T01:53:56.259Z,92840.00
2023-01-28T01:54:56.509Z,92840.00
2023-01-28T01:55:56.722Z,92844.00
2023-01-28T01:56:57.058Z,92850.00
2023-01-28T02:32:05.768Z,92868.00
2023-01-28T02:33:05.987Z,92870.00
2023-01-28T02:34:06.213Z,92868.00
2023-01-28T02:35:06.472Z,92868.00
2023-01-28T02:36:06.692Z,92870.00
2023-01-28T02:37:06.920Z,92868.00
2023-01-28T02:38:07.183Z,92866.00
2023-01-28T02:39:07.403Z,92868.00
2023-01-28T02:40:07.611Z,92872.00
2023-01-28T02:41:07.836Z,92870.00
2023-01-28T02:42:08.152Z,92875.00
2023-01-28T02:43:08.369Z,92875.00
2023-01-28T02:44:08.647Z,92875.00
2023-01-28T02:45:08.851Z,92877.00
2023-01-28T02:46:09.181Z,92877.00
2023-01-28T02:47:09.347Z,92877.00
2023-01-28T02:48:09.600Z,92874.00
2023-01-28T02:49:09.882Z,92874.00
2023-01-28T02:50:10.129Z,92872.00
2023-01-28T02:51:10.324Z,92874.00
2023-01-28T02:53:10.867Z,92872.00
2023-01-28T02:54:11.086Z,92872.00
2023-01-28T02:55:11.326Z,92868.00
2023-01-28T02:56:11.528Z,92866.00
2023-01-28T02:57:11.758Z,92870.00
2023-01-28T03:14:15.661Z,92870.00
2023-01-28T03:15:16.206Z,92870.00
2023-01-28T03:16:15.921Z,92870.00
2023-01-28T03:17:15.916Z,92870.00
2023-01-28T03:18:15.934Z,92868.00
2023-01-28T03:19:15.975Z,92874.00
2023-01-28T03:20:16.020Z,92872.00
2023-01-28T03:21:16.060Z,92870.00
2023-01-28T03:22:16.088Z,92870.00
2023-01-28T03:23:16.104Z,92870.00
2023-01-28T03:24:16.174Z,92868.00
2023-01-28T03:25:16.511Z,92866.00
2023-01-28T03:26:16.239Z,92870.00
2023-01-28T03:27:16.337Z,92868.00
2023-01-28T03:28:16.400Z,92868.00
2023-01-28T03:29:16.465Z,92868.00
2023-01-28T03:30:16.542Z,92868.00
2023-01-28T03:31:16.596Z,92868.00
2023-01-28T03:32:16.704Z,92870.00
2023-01-28T03:33:16.741Z,92872.00
2023-01-28T03:34:16.885Z,92875.00
2023-01-28T03:35:17.223Z,92870.00
2023-01-28T03:36:16.976Z,92877.00
2023-01-28T03:37:17.051Z,92877.00
2023-01-28T03:38:17.140Z,92875.00
2023-01-28T03:39:17.225Z,92877.00
2023-01-28T03:40:17.296Z,92877.00
2023-01-28T03:41:17.390Z,92877.00
2023-01-28T03:42:17.488Z,92879.00
2023-01-28T03:43:17.559Z,92881.00
2023-01-28T03:44:17.633Z,92881.00
2023-01-28T03:45:17.912Z,92883.00
2023-01-28T03:46:17.827Z,92883.00
2023-01-28T03:47:17.887Z,92883.00
2023-01-28T03:48:17.984Z,92883.00
2023-01-28T03:49:18.093Z,92883.00
2023-01-28T03:50:18.141Z,92883.00
2023-01-28T03:51:18.233Z,92883.00
2023-01-28T03:52:18.319Z,92887.00
2023-01-28T03:53:18.345Z,92887.00
2023-01-28T03:54:18.352Z,92887.00
2023-01-28T03:55:18.384Z,92889.00
2023-01-28T03:56:18.459Z,92887.00
2023-01-28T03:57:18.439Z,92889.00
2023-01-28T03:58:18.448Z,92891.00
2023-01-28T03:59:18.472Z,92893.00
2023-01-28T04:00:18.515Z,92899.00
2023-01-28T04:01:18.573Z,92893.00
2023-01-28T04:02:18.547Z,92895.00
2023-01-28T04:03:18.595Z,92895.00
2023-01-28T04:04:18.593Z,92895.00
2023-01-28T04:05:18.622Z,92897.00
2023-01-28T04:06:18.652Z,92899.00
2023-01-28T04:07:18.693Z,92903.00
2023-01-28T04:08:18.711Z,92903.00
2023-01-28T04:09:18.733Z,92905.00
2023-01-28T04:10:18.749Z,92901.00
2023-01-28T04:11:18.804Z,92899.00
2023-01-28T04:12:18.864Z,92899.00
2023-01-28T04:13:18.899Z,92901.00
2023-01-28T04:14:18.962Z,92901.00
2023-01-28T04:15:19.037Z,92899.00
2023-01-28T04:16:19.154Z,92901.00
2023-01-28T04:17:19.163Z,92903.00
2023-01-28T04:18:19.244Z,92901.00
2023-01-28T04:19:19.306Z,92899.00
2023-01-28T04:20:19.393Z,92899.00
2023-01-28T04:21:19.498Z,92897.00
2023-01-28T04:22:19.541Z,92895.00
2023-01-28T04:23:19.640Z,92893.00
2023-01-28T04:24:19.767Z,92891.00
2023-01-28T04:25:19.777Z,92889.00
2023-01-28T04:26:19.827Z,92889.00
2023-01-28T04:27:19.863Z,92891.00
2023-01-28T04:28:19.893Z,92889.00
2023-01-28T04:29:19.909Z,92893.00
2023-01-28T04:30:19.947Z,92893.00
2023-01-28T04:31:19.992Z,92895.00
2023-01-28T04:32:19.991Z,92897.00
2023-01-28T04:33:20.031Z,92895.00
2023-01-28T04:34:20.025Z,92895.00
2023-01-28T04:35:20.064Z,92893.00
2023-01-28T04:36:20.097Z,92901.00
2023-01-28T04:37:20.129Z,92903.00
2023-01-28T04:38:20.139Z,92903.00
2023-01-28T04:39:20.166Z,92901.00
2023-01-28T04:40:20.178Z,92903.00
2023-01-28T04:41:20.190Z,92903.00
2023-01-28T04:42:20.222Z,92903.00
2023-01-28T04:43:20.237Z,92903.00
2023-01-28T04:44:20.260Z,92905.00
2023-01-28T04:45:20.289Z,92905.00
2023-01-28T04:46:20.359Z,92907.00
2023-01-28T04:47:20.340Z,92905.00
2023-01-28T04:48:20.368Z,92909.00
2023-01-28T04:49:20.395Z,92911.00
2023-01-28T04:50:20.471Z,92909.00
2023-01-28T04:51:20.633Z,92911.00
2023-01-28T04:52:20.614Z,92915.00
2023-01-28T04:53:20.700Z,92913.00
2023-01-28T04:54:20.782Z,92913.00
2023-01-28T04:55:20.866Z,92911.00
2023-01-28T04:56:20.881Z,92917.00
2023-01-28T04:57:20.926Z,92917.00
2023-01-28T04:58:20.996Z,92915.00
2023-01-28T04:59:21.087Z,92915.00
2023-01-28T05:00:21.145Z,92919.00
2023-01-28T05:01:21.233Z,92917.00
2023-01-28T05:02:21.328Z,92919.00
2023-01-28T05:03:21.380Z,92917.00
2023-01-28T05:04:21.450Z,92917.00
2023-01-28T05:05:21.528Z,92917.00
2023-01-28T05:06:21.595Z,92921.00
2023-01-28T05:07:21.684Z,92919.00
2023-01-28T05:08:21.765Z,92919.00
2023-01-28T05:09:21.824Z,92919.00
2023-01-28T05:10:21.907Z,92921.00
2023-01-28T05:11:21.978Z,92921.00
2023-01-28T05:12:22.063Z,92925.00
2023-01-28T05:13:22.962Z,92923.00
2023-01-28T05:14:22.189Z,92925.00
2023-01-28T05:15:22.275Z,92925.00
2023-01-28T05:16:22.344Z,92926.00
2023-01-28T05:17:22.440Z,92932.00
2023-01-28T05:18:22.492Z,92930.00
2023-01-28T05:19:22.580Z,92934.00
2023-01-28T05:20:22.658Z,92930.00
2023-01-28T05:21:22.733Z,92928.00
2023-01-28T05:22:22.803Z,92928.00
2023-01-28T05:23:22.892Z,92930.00
2023-01-28T05:24:23.012Z,92932.00
2023-01-28T05:25:23.055Z,92934.00
2023-01-28T05:26:23.112Z,92934.00
2023-01-28T05:27:23.201Z,92934.00
2023-01-28T05:28:23.276Z,92936.00
2023-01-28T05:29:23.337Z,92936.00
2023-01-28T05:30:23.415Z,92934.00
2023-01-28T05:31:23.481Z,92938.00
2023-01-28T05:32:23.578Z,92938.00
2023-01-28T05:33:23.629Z,92940.00
2023-01-28T05:34:23.672Z,92944.00
2023-01-28T05:35:23.745Z,92940.00
2023-01-28T05:36:23.820Z,92944.00
2023-01-28T05:37:23.900Z,92940.00
2023-01-28T05:38:23.954Z,92942.00
2023-01-28T05:39:24.037Z,92946.00
2023-01-28T05:40:24.102Z,92948.00
2023-01-28T05:41:24.204Z,92948.00
2023-01-28T05:42:24.286Z,92952.00
2023-01-28T05:43:24.366Z,92952.00
2023-01-28T05:44:24.437Z,92952.00
2023-01-28T05:45:24.590Z,92954.00
2023-01-28T05:46:24.600Z,92954.00
2023-01-28T05:47:24.677Z,92954.00
2023-01-28T05:48:24.766Z,92952.00
2023-01-28T05:49:24.808Z,92954.00
2023-01-28T06:07:25.558Z,92968.00
2023-01-28T06:08:25.582Z,92968.00
2023-01-28T06:09:25.640Z,92970.00
2023-01-28T06:10:25.692Z,92970.00
2023-01-28T06:11:25.875Z,92970.00
2023-01-28T06:12:25.845Z,92973.00
2023-01-28T06:13:25.918Z,92972.00
2023-01-28T06:14:25.963Z,92975.00
2023-01-28T06:15:26.097Z,92975.00
2023-01-28T06:16:26.081Z,92979.00
2023-01-28T06:17:26.136Z,92979.00
2023-01-28T06:18:26.189Z,92977.00
2023-01-28T06:19:26.222Z,92981.00
2023-01-28T06:21:28.391Z,92987.00
2023-01-28T06:22:26.292Z,92987.00
2023-01-28T06:23:26.317Z,92987.00
2023-01-28T06:24:26.368Z,92989.00
2023-01-28T06:25:26.335Z,92989.00
2023-01-28T06:26:26.346Z,92991.00
2023-01-28T06:27:26.358Z,92991.00
2023-01-28T06:29:26.386Z,92997.00
2023-01-28T06:30:26.386Z,92997.00
2023-01-28T06:31:26.407Z,92995.00
2023-01-28T06:32:26.455Z,92993.00
2023-01-28T06:33:26.388Z,92993.00
2023-01-28T06:34:26.401Z,92997.00
2023-01-28T06:35:26.409Z,92997.00
2023-01-28T06:36:26.433Z,92999.00
2023-01-28T06:37:26.427Z,93001.00
2023-01-28T06:38:26.454Z,93003.00
2023-01-28T06:39:26.458Z,93005.00
2023-01-28T06:40:26.466Z,93005.00
2023-01-28T06:41:26.491Z,93009.00
2023-01-28T06:42:26.503Z,93007.00
2023-01-28T06:43:26.512Z,93009.00
2023-01-28T06:44:26.539Z,93007.00
2023-01-28T06:45:26.533Z,93003.00
2023-01-28T06:46:26.602Z,93003.00
2023-01-28T06:47:26.552Z,93001.00
2023-01-28T06:48:26.561Z,93001.00
2023-01-28T06:49:26.576Z,93001.00
2023-01-28T06:50:26.583Z,93005.00
2023-01-28T06:51:26.595Z,93003.00
2023-01-28T06:52:26.602Z,93003.00
2023-01-28T06:53:26.611Z,93005.00
2023-01-28T06:54:26.603Z,93009.00
2023-01-28T06:55:26.622Z,93009.00
2023-01-28T06:56:26.647Z,93009.00
2023-01-28T06:57:26.637Z,93007.00
2023-01-28T06:58:26.652Z,93007.00
2023-01-28T06:59:26.652Z,93007.00
2023-01-28T07:00:26.659Z,93007.00
2023-01-28T07:01:26.772Z,93009.00
2023-01-28T07:02:27.809Z,93011.00
2023-01-28T07:03:26.680Z,93015.00
2023-01-28T07:04:26.699Z,93013.00
2023-01-28T07:06:26.703Z,93011.00
2023-01-28T08:17:31.479Z,93070.00
2023-01-28T08:18:31.541Z,93072.00
2023-01-28T08:19:31.620Z,93072.00
2023-01-28T08:20:31.701Z,93074.00
2023-01-28T08:21:31.769Z,93075.00
2023-01-28T08:22:31.831Z,93079.00
2023-01-28T08:23:31.896Z,93077.00
2023-01-28T08:24:31.976Z,93075.00
2023-01-28T08:25:32.039Z,93075.00
2023-01-28T08:26:32.100Z,93081.00
2023-01-28T08:27:32.173Z,93081.00
2023-01-28T08:28:32.270Z,93079.00
2023-01-28T08:29:32.288Z,93081.00
2023-01-28T08:30:32.363Z,93079.00
2023-01-28T08:31:32.492Z,93079.00
2023-01-28T08:32:32.490Z,93077.00
2023-01-28T08:33:32.587Z,93077.00
2023-01-28T08:34:32.624Z,93077.00
2023-01-28T08:35:32.701Z,93077.00
2023-01-28T08:36:32.793Z,93077.00
2023-01-28T08:37:32.855Z,93079.00
2023-01-28T08:38:32.889Z,93079.00
2023-01-28T08:39:32.935Z,93081.00
2023-01-28T08:40:32.959Z,93081.00
2023-01-28T08:41:33.026Z,93081.00
2023-01-28T08:42:33.064Z,93081.00
2023-01-28T08:43:33.144Z,93077.00
2023-01-28T09:22:35.581Z,93111.00
2023-01-28T09:23:35.624Z,93109.00
2023-01-28T09:24:37.918Z,93111.00
2023-01-28T09:25:35.687Z,93107.00
2023-01-28T09:26:35.699Z,93109.00
2023-01-28T09:27:35.695Z,93112.00
2023-01-28T09:28:35.702Z,93111.00
2023-01-28T09:29:35.703Z,93109.00
2023-01-28T09:30:37.439Z,93109.00
2023-01-28T09:31:35.719Z,93112.00
2023-01-28T09:32:35.714Z,93111.00
2023-01-28T09:33:35.720Z,93112.00
2023-01-28T09:34:35.732Z,93111.00
2023-01-28T09:54:36.378Z,93122.00
2023-01-28T09:55:36.379Z,93124.00
2023-01-28T09:56:36.412Z,93124.00
2023-01-28T09:57:36.394Z,93122.00
2023-01-28T09:58:36.390Z,93126.00
2023-01-28T09:59:36.392Z,93124.00
2023-01-28T10:00:36.441Z,93124.00
2023-01-28T10:01:36.396Z,93124.00
2023-01-28T10:02:36.405Z,93122.00
2023-01-28T10:03:36.491Z,93124.00
2023-01-28T10:04:36.461Z,93122.00
2023-01-28T10:05:39.157Z,93122.00
2023-01-28T10:06:36.552Z,93120.00
2023-01-28T10:07:36.554Z,93116.00
2023-01-28T10:08:36.554Z,93116.00
2023-01-28T10:09:36.567Z,93114.00
2023-01-28T10:10:36.559Z,93116.00
2023-01-28T10:11:36.560Z,93114.00
2023-01-28T10:12:36.562Z,93114.00
2023-01-28T10:13:36.583Z,93112.00
2023-01-28T10:14:36.598Z,93109.00
2023-01-28T10:15:36.622Z,93109.00
2023-01-28T10:16:36.661Z,93111.00
2023-01-28T10:17:36.732Z,93109.00
2023-01-28T10:18:36.672Z,93111.00
2023-01-28T10:19:36.685Z,93107.00
2023-01-28T10:20:36.700Z,93105.00
2023-01-28T10:21:36.709Z,93105.00
2023-01-28T10:22:36.728Z,93101.00
2023-01-28T10:23:36.737Z,93089.00
2023-01-28T10:24:36.807Z,93089.00
2023-01-28T10:25:36.763Z,93097.00
2023-01-28T10:26:36.772Z,93097.00
2023-01-28T10:27:36.785Z,93085.00
2023-01-28T10:28:36.780Z,93085.00
2023-01-28T10:29:36.828Z,93087.00
2023-01-28T10:30:36.816Z,93085.00
2023-01-28T10:31:36.835Z,93085.00
2023-01-28T10:32:36.827Z,93081.00
2023-01-28T10:33:36.845Z,93081.00
2023-01-28T10:34:36.858Z,93079.00
2023-01-28T10:35:36.875Z,93077.00
2023-01-28T10:36:36.905Z,93077.00
2023-01-28T10:37:36.977Z,93077.00
2023-01-28T10:38:37.044Z,93077.00
2023-01-28T10:39:37.078Z,93074.00
2023-01-28T10:40:37.122Z,93075.00
2023-01-28T10:41:45.377Z,93074.00
2023-01-28T10:42:38.183Z,93072.00
2023-01-28T10:43:37.198Z,93075.00
2023-01-28T10:44:37.220Z,93077.00
2023-01-28T10:45:37.290Z,93077.00
2023-01-28T10:46:37.242Z,93077.00
2023-01-28T10:47:37.259Z,93077.00
2023-01-28T10:48:37.259Z,93077.00
2023-01-28T10:49:37.260Z,93074.00
2023-01-28T10:50:37.271Z,93075.00
2023-01-28T10:51:37.279Z,93074.00
2023-01-28T10:52:37.325Z,93075.00
2023-01-28T10:53:37.323Z,93072.00
2023-01-28T10:54:37.304Z,93072.00
2023-01-28T10:55:37.321Z,93072.00
2023-01-28T10:56:37.329Z,93070.00
2023-01-28T10:57:37.353Z,93070.00
2023-01-28T10:58:37.362Z,93068.00
2023-01-28T10:59:37.382Z,93068.00
2023-01-28T11:00:37.407Z,93068.00
2023-01-28T11:01:37.429Z,93070.00
2023-01-28T11:02:37.585Z,93072.00
2023-01-28T11:03:37.492Z,93070.00
2023-01-28T11:04:37.507Z,93070.00
2023-01-28T11:05:37.524Z,93066.00
2023-01-28T11:06:37.536Z,93062.00
2023-01-28T11:07:37.561Z,93062.00
2023-01-28T11:08:37.573Z,93064.00
2023-01-28T11:09:37.592Z,93060.00
2023-01-28T11:10:37.625Z,93056.00
2023-01-28T11:11:37.613Z,93054.00
2023-01-28T11:12:37.651Z,93054.00
2023-01-28T11:13:37.656Z,93050.00
2023-01-28T11:14:37.693Z,93052.00
2023-01-28T11:15:37.713Z,93052.00
2023-01-28T11:16:37.717Z,93050.00
2023-01-28T11:17:37.749Z,93052.00
2023-01-28T11:18:37.721Z,93052.00
2023-01-28T11:19:37.733Z,93054.00
2023-01-28T11:20:37.752Z,93052.00
2023-01-28T11:21:37.733Z,93050.00
2023-01-28T11:22:37.746Z,93046.00
2023-01-28T11:23:37.730Z,93048.00
2023-01-28T11:24:37.734Z,93048.00
2023-01-28T11:25:37.753Z,93048.00
2023-01-28T11:26:37.767Z,93046.00
2023-01-28T11:27:37.788Z,93046.00
2023-01-28T11:28:37.764Z,93048.00
2023-01-28T11:29:37.754Z,93050.00
2023-01-28T11:30:37.861Z,93052.00
2023-01-28T11:31:37.801Z,93050.00
2023-01-28T11:32:37.818Z,93052.00
2023-01-28T11:33:37.844Z,93056.00
2023-01-28T11:34:37.915Z,93052.00
2023-01-28T11:35:38.058Z,93052.00
2023-01-28T11:36:38.075Z,93052.00
2023-01-28T11:37:38.152Z,93052.00
2023-01-28T11:38:38.196Z,93052.00
2023-01-28T11:39:38.262Z,93054.00
2023-01-28T11:40:38.303Z,93054.00
2023-01-28T11:41:38.343Z,93054.00
2023-01-28T11:42:38.427Z,93052.00
2023-01-28T11:43:38.477Z,93050.00
2023-01-28T11:44:38.568Z,93050.00
2023-01-28T11:45:38.697Z,93050.00
2023-01-28T11:46:38.658Z,93048.00
2023-01-28T11:47:38.692Z,93050.00
2023-01-28T11:48:38.716Z,93044.00
2023-01-28T11:49:38.724Z,93048.00
2023-01-28T11:50:38.734Z,93046.00
2023-01-28T11:51:38.733Z,93046.00
2023-01-28T11:53:05.896Z,93048.00
2023-01-28T11:53:39.724Z,93048.00
2023-01-28T11:54:38.706Z,93050.00
2023-01-28T11:55:38.713Z,93050.00
2023-01-28T11:56:38.684Z,93050.00
2023-01-28T11:57:38.662Z,93048.00
2023-01-28T11:58:38.663Z,93048.00
2023-01-28T11:59:38.644Z,93046.00
2023-01-28T12:00:38.643Z,93048.00
2023-01-28T12:01:38.628Z,93046.00
2023-01-28T12:02:38.605Z,93046.00
2023-01-28T12:03:38.593Z,93044.00
2023-01-28T12:04:38.584Z,93042.00
2023-01-28T12:05:38.540Z,93042.00
2023-01-28T12:06:38.519Z,93036.00
2023-01-28T12:07:38.494Z,93036.00
2023-01-28T12:08:38.491Z,93040.00
2023-01-28T12:09:38.451Z,93042.00
2023-01-28T12:10:38.444Z,93038.00
2023-01-28T12:11:38.440Z,93040.00
2023-01-28T12:12:38.415Z,93038.00
2023-01-28T12:13:39.395Z,93034.00
2023-01-28T12:14:38.376Z,93036.00
2023-01-28T12:15:38.381Z,93034.00
2023-01-28T12:16:38.343Z,93036.00
2023-01-28T12:17:38.319Z,93034.00
2023-01-28T12:18:38.279Z,93034.00
2023-01-28T12:19:38.257Z,93034.00
2023-01-28T12:20:38.227Z,93036.00
2023-01-28T12:21:38.205Z,93036.00
2023-01-28T12:22:38.177Z,93036.00
2023-01-28T12:23:38.166Z,93034.00
2023-01-28T12:24:38.146Z,93034.00
2023-01-28T12:25:38.121Z,93032.00
2023-01-28T12:26:38.098Z,93032.00
2023-01-28T12:27:38.069Z,93034.00
2023-01-28T12:28:38.041Z,93030.00
2023-01-28T12:29:38.049Z,93030.00
2023-01-28T12:30:38.060Z,93034.00
2023-01-28T12:31:38.358Z,93034.00
2023-01-28T12:32:38.438Z,93034.00
2023-01-28T12:33:38.707Z,93034.00
2023-01-28T12:34:38.916Z,93034.00
2023-01-28T12:35:39.153Z,93034.00
2023-01-28T12:36:39.326Z,93036.00
2023-01-28T12:37:39.584Z,93034.00
2023-01-28T12:38:39.737Z,93036.00
2023-01-28T12:39:39.920Z,93038.00
2023-01-28T12:40:40.154Z,93038.00
2023-01-28T12:41:40.324Z,93038.00
2023-01-28T12:42:40.578Z,93038.00
2023-01-28T12:43:40.759Z,93036.00
2023-01-28T12:44:40.956Z,93038.00
2023-01-28T12:45:41.248Z,93038.00
2023-01-28T12:46:41.403Z,93036.00
2023-01-28T12:47:41.603Z,93036.00
2023-01-28T13:07:45.551Z,93030.00
2023-01-28T13:08:45.752Z,93028.00
2023-01-28T13:09:45.889Z,93030.00
2023-01-28T13:10:46.124Z,93028.00
2023-01-28T13:11:46.362Z,93028.00
2023-01-28T13:54:55.607Z,93046.00
2023-01-28T13:55:55.795Z,93042.00
2023-01-28T13:56:55.998Z,93044.00
2023-01-28T13:57:56.240Z,93046.00
2023-01-28T13:58:56.462Z,93046.00
2023-01-28T13:59:56.693Z,93042.00
2023-01-28T14:00:56.833Z,93042.00
2023-01-28T14:01:57.034Z,93044.00
2023-01-28T14:02:57.240Z,93044.00
2023-01-28T14:03:57.453Z,93042.00
2023-01-28T14:04:57.643Z,93044.00
2023-01-28T14:05:57.837Z,93046.00
2023-01-28T14:06:58.001Z,93046.00
2023-01-28T14:07:58.196Z,93048.00
2023-01-28T14:08:58.485Z,93050.00
2023-01-28T14:09:58.695Z,93052.00
2023-01-28T14:10:58.888Z,93052.00
2023-01-28T14:11:59.190Z,93050.00
2023-01-28T14:12:59.394Z,93050.00
2023-01-28T14:13:59.626Z,93052.00
2023-01-28T14:14:59.827Z,93056.00
2023-01-28T14:16:00.910Z,93062.00
2023-01-28T14:16:59.832Z,93060.00
2023-01-28T14:17:59.732Z,93060.00
2023-01-28T14:18:59.707Z,93062.00
2023-01-28T14:19:59.694Z,93062.00
2023-01-28T14:20:59.716Z,93062.00
2023-01-28T14:21:59.638Z,93064.00
2023-01-28T14:22:59.605Z,93058.00
2023-01-28T14:23:59.585Z,93058.00
2023-01-28T14:24:59.542Z,93054.00
2023-01-28T14:25:59.534Z,93058.00
2023-01-28T14:26:59.480Z,93058.00
2023-01-28T14:27:59.464Z,93060.00
2023-01-28T14:28:59.429Z,93060.00
2023-01-28T14:29:59.394Z,93054.00
2023-01-28T14:30:59.417Z,93058.00
2023-01-28T14:31:59.403Z,93060.00
2023-01-28T14:32:59.381Z,93058.00
2023-01-28T14:33:59.303Z,93060.00
2023-01-28T14:34:59.266Z,93062.00
2023-01-28T14:35:59.245Z,93064.00
2023-01-28T14:36:59.218Z,93064.00
2023-01-28T14:37:59.200Z,93066.00
2023-01-28T14:38:59.205Z,93070.00
2023-01-28T14:39:59.201Z,93068.00
2023-01-28T14:40:59.187Z,93072.00
2023-01-28T14:41:59.188Z,93072.00
2023-01-28T14:42:59.166Z,93075.00
2023-01-28T14:43:59.145Z,93074.00
2023-01-28T14:44:59.173Z,93075.00
2023-01-28T14:45:59.244Z,93072.00
2023-01-28T14:46:59.466Z,93074.00
2023-01-28T14:47:59.663Z,93074.00
2023-01-28T14:48:59.841Z,93072.00
2023-01-28T14:50:00.059Z,93075.00
2023-01-28T14:51:00.239Z,93075.00
2023-01-28T14:52:00.421Z,93074.00
2023-01-28T14:53:00.614Z,93075.00
2023-01-28T14:54:00.808Z,93074.00
2023-01-28T14:55:00.993Z,93075.00
2023-01-28T14:56:01.252Z,93075.00
2023-01-28T14:57:01.479Z,93077.00
2023-01-28T14:58:01.689Z,93075.00
2023-01-28T15:17:05.666Z,93089.00
2023-01-28T15:18:05.824Z,93101.00
2023-01-28T15:19:05.974Z,93101.00
2023-01-28T15:20:06.265Z,93103.00
2023-01-28T15:21:06.422Z,93103.00
2023-01-28T15:22:06.599Z,93101.00
2023-01-28T15:23:06.788Z,93105.00
2023-01-28T16:34:15.616Z,93181.00
2023-01-28T16:35:16.172Z,93183.00
2023-01-28T16:36:15.798Z,93183.00
2023-01-28T16:37:15.786Z,93187.00
2023-01-28T16:38:15.755Z,93189.00
2023-01-28T16:39:15.723Z,93193.00
2023-01-28T16:40:16.117Z,93193.00
2023-01-28T16:41:15.718Z,93195.00
2023-01-28T16:42:15.696Z,93195.00
2023-01-28T16:43:15.679Z,93195.00
2023-01-28T16:49:15.595Z,93197.00
2023-01-28T16:50:15.576Z,93201.00
2023-01-28T16:51:15.563Z,93201.00
2023-01-28T16:52:15.558Z,93205.00
2023-01-28T16:53:15.544Z,93207.00
2023-01-28T17:11:15.743Z,93214.00
2023-01-28T17:58:25.695Z,93277.00
2023-01-28T17:59:26.015Z,93277.00
2023-01-28T18:16:26.820Z,93299.00
2023-01-28T18:17:26.833Z,93297.00
2023-01-28T18:18:26.742Z,93297.00
2023-01-28T18:19:26.726Z,93303.00
2023-01-28T18:20:26.707Z,93299.00
2023-01-28T18:21:26.682Z,93299.00
2023-01-28T18:22:26.655Z,93301.00
2023-01-28T18:23:26.626Z,93299.00
2023-01-28T18:24:26.629Z,93301.00
2023-01-28T18:25:26.577Z,93303.00
2023-01-28T18:26:26.545Z,93303.00
2023-01-28T18:27:26.507Z,93301.00
2023-01-28T18:28:26.470Z,93303.00
2023-01-28T18:29:26.448Z,93307.00
2023-01-28T18:30:26.414Z,93307.00
2023-01-28T18:31:26.421Z,93309.00
2023-01-28T18:32:26.369Z,93309.00
2023-01-28T18:33:26.361Z,93311.00
2023-01-28T18:34:26.337Z,93309.00
2023-01-28T18:35:26.306Z,93309.00
2023-01-28T18:36:26.288Z,93307.00
2023-01-28T18:37:26.310Z,93307.00
2023-01-28T18:47:26.518Z,93318.00
2023-01-28T18:48:27.540Z,93320.00
2023-01-28T18:49:26.681Z,93324.00
2023-01-28T18:50:26.673Z,93324.00
2023-01-28T18:51:30.486Z,93326.00
2023-01-28T18:52:26.605Z,93328.00
2023-01-28T18:53:26.580Z,93328.00
2023-01-28T18:54:26.558Z,93326.00
2023-01-28T18:55:26.523Z,93326.00
2023-01-28T18:56:26.493Z,93328.00
2023-01-28T18:57:26.453Z,93328.00
2023-01-28T18:58:26.433Z,93328.00
2023-01-28T18:59:26.385Z,93328.00
2023-01-28T19:00:26.371Z,93330.00
2023-01-28T19:01:26.387Z,93328.00
2023-01-28T19:02:26.391Z,93330.00
2023-01-28T19:03:26.271Z,93330.00
2023-01-28T19:04:26.245Z,93328.00
2023-01-28T19:05:26.221Z,93330.00
2023-01-28T19:06:26.180Z,93330.00
2023-01-28T19:07:26.143Z,93328.00
2023-01-28T19:08:26.109Z,93330.00
2023-01-28T19:09:26.064Z,93328.00
2023-01-28T19:10:26.049Z,93328.00
2023-01-28T19:11:26.013Z,93326.00
2023-01-28T19:12:25.992Z,93328.00
2023-01-28T19:13:25.960Z,93328.00
2023-01-28T19:14:25.928Z,93332.00
2023-01-28T19:15:25.914Z,93332.00
2023-01-28T19:16:25.906Z,93334.00
2023-01-28T19:17:25.849Z,93332.00
2023-01-28T19:18:25.825Z,93334.00
2023-01-28T19:19:25.808Z,93336.00
2023-01-28T19:20:25.772Z,93336.00
2023-01-28T19:21:25.745Z,93334.00
2023-01-28T19:22:25.719Z,93332.00
2023-01-28T19:23:25.676Z,93334.00
2023-01-28T19:24:25.687Z,93332.00
2023-01-28T19:25:25.629Z,93334.00
2023-01-28T19:26:25.602Z,93334.00
2023-01-28T19:27:25.566Z,93334.00
2023-01-28T19:58:25.656Z,93322.00
2023-01-28T20:02:26.558Z,93330.00
2023-01-28T20:03:26.754Z,93328.00
2023-01-28T20:04:26.951Z,93332.00
2023-01-28T20:05:27.167Z,93330.00
2023-01-28T20:06:27.405Z,93332.00
2023-01-28T20:07:27.609Z,93332.00
2023-01-28T20:08:27.833Z,93334.00
2023-01-28T20:09:28.047Z,93332.00
2023-01-28T20:10:28.334Z,93332.00
2023-01-28T20:11:28.627Z,93336.00
2023-01-28T20:12:28.809Z,93330.00